Details From GCLP - Gran Canaria
To GCLA - La Palma
Flight Number -
Tags decoded
Created
Modified
Stats Distance 161 nm / 298 km
Max Altitude 0 ft / 0 m
Waypoints 4
Social Downloads 2
Likes 0
Share VATSIM

Download

Looking for another format? Having issues loading an existing format? Contact us
Advertisement - Login to hide

Notes

Requested: GCLP TFS DRANO LPC GCLA

Route

GCLP DRANO LPC GCLA

ID Type Via Altitude Latitude Longitude Leg Dist Tot Dist Heading (true) Name
O GCLP APT - 0 ft / 0 m 27.93154˚ -15.38559˚ - 0 nm - Gran Canaria
DRANO FIX - 0 ft / 0 m 27.65565˚ -15.50677˚ 17 nm 17 nm 201° / 201° -
LPC VOR - 0 ft / 0 m 27.82853˚ -15.43225˚ 11 nm 28 nm 21° / 21° GRAN CANARIA VOR-DME
O GCLA APT - 0 ft / 0 m 28.62648˚ -17.75561˚ 131 nm 160 nm 292° / 291° La Palma

Altitude Profile

Advertisement - Login to hide

GCLP

Details ICAO GCLP (LPA)
Name Gran Canaria
Region Canary Islands
Timezone Atlantic/Canary (UTC+1.0)
Stats Elevation 77 ft / 23 m (AMSL)
Location 27.931544° -15.385592°
Runways 2
Magnetic Variation 4.633° W

METAR

GCLP 261630Z 35020KT 310V020 9999 FEW025 SCT050 24/10 Q1017 NOSIG

Decode

TAF

TAF AMD GCLP 261615Z 2616/2715 36020KT 9999 FEW025 SCT045 TX23/2714Z TN18/2705Z TEMPO 2616/2618 36020G30KT

Decode

Departure Runways

ID Width Length Bearing (true) Bearing (mag) Surface Threshold Offset Overrun Length
03L 148 ft / 45 m 10,203 ft / 3,110 m 21.33° 25.96° Asphalt 0 ft / 0 m 656 ft / 200 m
03R 148 ft / 45 m 10,200 ft / 3,109 m 21.32° 25.95° Asphalt 0 ft / 0 m 673 ft / 205 m
21L 148 ft / 45 m 10,200 ft / 3,109 m 201.33° 205.96° Asphalt 0 ft / 0 m 689 ft / 210 m
21R 148 ft / 45 m 10,203 ft / 3,110 m 201.33° 205.96° Asphalt 0 ft / 0 m 755 ft / 230 m

GCLA

Details ICAO GCLA (SPC)
Name La Palma
Region Canary Islands
Timezone Atlantic/Canary (UTC+1.0)
Stats Elevation 107 ft / 33 m (AMSL)
Location 28.626480° -17.755613°
Runways 1
Magnetic Variation 5.469° W

METAR

GCLA 261630Z 04010KT 350V080 9999 BKN040 20/12 Q1019

Decode

TAF

TAF GCLA 261400Z 2615/2715 02011KT 9999 FEW040 BKN050 TX23/2714Z TN17/2705Z PROB30 TEMPO 2615/2618 02017G27KT PROB40 2706/2709 32007KT

Decode

Destination Runways

ID Width Length Bearing (true) Bearing (mag) Surface Threshold Offset Overrun Length
01 148 ft / 45 m 7,240 ft / 2,207 m 359.02° 4.49° Asphalt 0 ft / 0 m 279 ft / 85 m
19 148 ft / 45 m 7,240 ft / 2,207 m 179.02° 184.49° Asphalt 0 ft / 0 m 236 ft / 72 m

Popular Alternatives